createdAt,value
2023-03-19T00:02:25.135Z,14.70
2023-03-19T00:04:57.034Z,14.70
2023-03-19T00:07:37.504Z,14.60
2023-03-19T00:10:05.576Z,14.60
2023-03-19T00:12:35.471Z,14.60
2023-03-19T00:15:06.153Z,14.60
2023-03-19T00:17:36.069Z,14.60
2023-03-19T00:20:08.612Z,14.50
2023-03-19T00:22:40.295Z,14.60
2023-03-19T00:25:14.933Z,14.50
2023-03-19T00:27:45.098Z,14.50
2023-03-19T00:30:18.426Z,14.60
2023-03-19T00:32:49.157Z,14.50
2023-03-19T00:35:19.343Z,14.60
2023-03-19T00:37:48.032Z,14.50
2023-03-19T00:40:17.748Z,14.40
2023-03-19T00:42:45.109Z,14.40
2023-03-19T00:45:26.128Z,14.40
2023-03-19T00:47:57.319Z,14.40
2023-03-19T00:50:28.459Z,14.30
2023-03-19T00:53:00.326Z,14.10
2023-03-19T00:55:30.201Z,14.00
2023-03-19T00:57:57.643Z,13.90
2023-03-19T01:00:28.943Z,13.80
2023-03-19T01:02:56.298Z,13.70
2023-03-19T01:05:26.007Z,13.70
2023-03-19T01:07:56.832Z,13.70
2023-03-19T01:10:33.405Z,13.70
2023-03-19T01:13:00.680Z,13.60
2023-03-19T01:15:30.688Z,13.40
2023-03-19T01:18:13.677Z,13.40
2023-03-19T01:20:44.443Z,13.40
2023-03-19T01:23:15.093Z,13.30
2023-03-19T01:25:42.927Z,13.10
2023-03-19T01:28:13.152Z,13.10
2023-03-19T01:30:43.264Z,13.10
2023-03-19T01:33:28.247Z,13.10
2023-03-19T01:36:05.887Z,13.10
2023-03-19T01:38:56.231Z,13.20
2023-03-19T01:41:25.113Z,13.30
2023-03-19T01:43:55.181Z,13.30
2023-03-19T01:46:44.452Z,13.30
2023-03-19T01:49:54.139Z,13.20
2023-03-19T01:52:29.676Z,13.20
2023-03-19T01:55:17.946Z,13.10
2023-03-19T01:57:59.328Z,13.00
2023-03-19T02:00:57.367Z,12.90
2023-03-19T02:03:30.924Z,12.90
2023-03-19T02:06:22.859Z,12.90
2023-03-19T02:08:52.738Z,13.10
2023-03-19T02:11:21.419Z,13.20
2023-03-19T02:13:51.477Z,13.20
2023-03-19T02:16:19.427Z,13.20
2023-03-19T02:18:56.592Z,13.20
2023-03-19T02:21:25.864Z,13.10
2023-03-19T02:24:12.260Z,13.20
2023-03-19T02:27:00.325Z,13.20
2023-03-19T02:29:36.086Z,13.30
2023-03-19T02:32:05.043Z,13.30
2023-03-19T02:34:42.530Z,13.30
2023-03-19T02:37:17.479Z,13.30
2023-03-19T02:39:58.251Z,13.40
2023-03-19T02:42:30.435Z,13.30
2023-03-19T02:45:05.477Z,13.30
2023-03-19T02:47:38.097Z,13.30
2023-03-19T02:50:10.681Z,13.30
2023-03-19T02:52:38.295Z,13.30
2023-03-19T02:55:12.168Z,13.20
2023-03-19T02:57:42.830Z,13.20
2023-03-19T03:00:13.524Z,13.20
2023-03-19T03:02:41.857Z,13.30
2023-03-19T03:05:14.699Z,13.30
2023-03-19T03:07:45.048Z,13.40
2023-03-19T03:10:13.119Z,13.40
2023-03-19T03:12:44.041Z,13.40
2023-03-19T03:15:14.899Z,13.40
2023-03-19T03:17:46.317Z,13.40
2023-03-19T03:20:20.153Z,13.30
2023-03-19T03:22:54.178Z,13.30
2023-03-19T03:25:22.748Z,13.30
2023-03-19T03:27:53.648Z,13.30
2023-03-19T03:30:22.750Z,13.30
2023-03-19T03:32:53.145Z,13.30
2023-03-19T03:35:28.039Z,13.20
2023-03-19T03:38:00.380Z,13.20
2023-03-19T03:40:32.919Z,13.30
2023-03-19T03:43:06.967Z,13.30
2023-03-19T03:45:42.206Z,13.20
2023-03-19T03:48:09.770Z,13.20
2023-03-19T03:50:38.801Z,13.30
2023-03-19T03:53:12.801Z,13.20
2023-03-19T03:55:46.076Z,13.20
2023-03-19T03:58:21.205Z,13.20
2023-03-19T04:00:55.319Z,13.20
2023-03-19T04:03:31.547Z,13.20
2023-03-19T04:06:03.963Z,13.20
2023-03-19T04:08:35.251Z,13.20
2023-03-19T04:11:13.389Z,13.20
2023-03-19T04:13:46.095Z,13.20
2023-03-19T04:16:19.423Z,13.20
2023-03-19T04:18:47.161Z,13.20
2023-03-19T04:21:17.394Z,13.20
2023-03-19T04:23:48.116Z,13.20
2023-03-19T04:26:27.356Z,13.10
2023-03-19T04:28:57.884Z,13.20
2023-03-19T04:31:32.314Z,13.10
2023-03-19T04:34:04.883Z,13.20
2023-03-19T04:36:46.965Z,13.20
2023-03-19T04:39:33.072Z,13.20
2023-03-19T04:42:04.839Z,13.20
2023-03-19T04:44:42.426Z,13.20
2023-03-19T04:47:14.595Z,13.20
2023-03-19T04:49:51.786Z,13.20
2023-03-19T04:52:24.251Z,13.20
2023-03-19T04:54:52.131Z,13.20
2023-03-19T04:57:27.571Z,13.20
2023-03-19T04:59:57.387Z,13.20
2023-03-19T05:02:25.262Z,13.10
2023-03-19T05:04:56.607Z,13.10
2023-03-19T05:07:31.958Z,13.00
2023-03-19T05:10:10.364Z,12.90
2023-03-19T05:12:40.069Z,12.90
2023-03-19T05:15:14.275Z,12.80
2023-03-19T05:18:02.720Z,12.80
2023-03-19T05:20:42.168Z,12.80
2023-03-19T05:23:21.191Z,12.70
2023-03-19T05:26:03.601Z,12.70
2023-03-19T05:29:01.568Z,12.60
2023-03-19T05:31:45.645Z,12.60
2023-03-19T05:34:19.125Z,12.50
2023-03-19T05:36:47.911Z,12.50
2023-03-19T05:39:54.193Z,12.50
2023-03-19T05:45:23.084Z,12.40
2023-03-19T05:48:02.729Z,12.40
2023-03-19T05:50:39.092Z,12.40
2023-03-19T05:53:28.161Z,12.30
2023-03-19T05:56:21.823Z,12.30
2023-03-19T05:59:26.357Z,12.20
2023-03-19T06:02:21.957Z,12.10
2023-03-19T06:04:57.822Z,12.10
2023-03-19T06:07:47.604Z,12.00
2023-03-19T06:10:28.376Z,12.00
2023-03-19T06:13:07.902Z,12.00
2023-03-19T06:18:50.224Z,11.90
2023-03-19T06:21:21.874Z,11.90
2023-03-19T06:23:52.522Z,11.90
2023-03-19T06:26:29.384Z,11.90
2023-03-19T06:28:59.812Z,11.90
2023-03-19T06:31:33.325Z,11.90
2023-03-19T06:34:04.260Z,12.00
2023-03-19T06:36:49.436Z,11.90
2023-03-19T06:39:30.096Z,12.00
2023-03-19T06:42:07.660Z,12.20
2023-03-19T06:44:38.680Z,12.30
2023-03-19T06:47:14.604Z,12.50
2023-03-19T06:49:47.024Z,12.60
2023-03-19T06:52:17.511Z,12.90
2023-03-19T06:54:52.426Z,13.00
2023-03-19T06:57:27.495Z,13.20
2023-03-19T07:00:03.403Z,13.40
2023-03-19T07:02:39.073Z,13.50
2023-03-19T07:05:12.158Z,13.60
2023-03-19T07:07:44.718Z,13.70
2023-03-19T07:10:20.522Z,13.80
2023-03-19T07:13:05.455Z,13.80
2023-03-19T07:15:39.972Z,13.90
2023-03-19T07:18:09.880Z,14.00
2023-03-19T07:20:44.675Z,14.10
2023-03-19T07:23:15.756Z,14.10
2023-03-19T07:25:56.418Z,14.10
2023-03-19T07:28:52.276Z,14.10
2023-03-19T07:31:37.457Z,14.10
2023-03-19T07:34:08.881Z,14.20
2023-03-19T07:36:36.314Z,14.30
2023-03-19T07:39:10.929Z,14.60
2023-03-19T07:41:41.355Z,14.80
2023-03-19T07:44:19.120Z,14.90
2023-03-19T07:46:48.322Z,15.00
2023-03-19T07:49:29.347Z,14.90
2023-03-19T07:52:19.446Z,14.90
2023-03-19T07:54:53.112Z,14.80
2023-03-19T07:57:26.713Z,15.10
2023-03-19T08:00:15.003Z,15.80
2023-03-19T08:02:46.998Z,16.70
2023-03-19T08:05:17.778Z,17.20
2023-03-19T08:07:54.111Z,17.60
2023-03-19T08:10:24.465Z,17.90
2023-03-19T08:12:53.473Z,18.40
2023-03-19T08:15:27.049Z,18.60
2023-03-19T08:18:04.352Z,18.40
2023-03-19T08:20:39.083Z,18.00
2023-03-19T08:23:20.157Z,17.60
2023-03-19T08:25:52.033Z,17.30
2023-03-19T08:28:24.298Z,17.20
2023-03-19T08:31:03.128Z,17.10
2023-03-19T08:33:37.610Z,16.90
2023-03-19T08:36:21.674Z,16.70
2023-03-19T08:38:49.332Z,16.60
2023-03-19T08:41:22.207Z,16.60
2023-03-19T08:44:04.815Z,16.60
2023-03-19T08:46:34.618Z,16.60
2023-03-19T08:49:09.573Z,16.60
2023-03-19T08:51:38.946Z,16.60
2023-03-19T08:54:11.518Z,16.50
2023-03-19T08:56:45.736Z,16.50
2023-03-19T08:59:20.291Z,16.40
2023-03-19T09:01:56.972Z,16.40
2023-03-19T09:04:41.717Z,16.50
2023-03-19T09:07:18.696Z,16.50
2023-03-19T09:09:54.825Z,16.60
2023-03-19T09:12:34.086Z,16.50
2023-03-19T09:15:11.677Z,16.30
2023-03-19T09:17:57.688Z,16.20
2023-03-19T09:20:37.001Z,16.30
2023-03-19T09:23:12.753Z,16.30
2023-03-19T09:25:58.937Z,16.30
2023-03-19T09:28:29.369Z,16.40
2023-03-19T09:31:10.418Z,16.40
2023-03-19T09:33:49.251Z,16.30
2023-03-19T09:36:25.543Z,16.20
2023-03-19T09:38:58.138Z,16.20
2023-03-19T09:41:49.775Z,16.30
2023-03-19T09:44:37.925Z,16.30
2023-03-19T09:47:30.847Z,16.40
2023-03-19T09:50:05.176Z,16.50
2023-03-19T09:52:53.767Z,16.50
2023-03-19T09:55:56.818Z,16.70
2023-03-19T09:58:45.264Z,16.90
2023-03-19T10:01:34.659Z,17.00
2023-03-19T10:04:34.870Z,16.90
2023-03-19T10:07:27.401Z,16.70
2023-03-19T10:10:41.695Z,16.60
2023-03-19T10:13:56.378Z,16.50
2023-03-19T10:16:30.055Z,16.50
2023-03-19T10:19:02.523Z,16.50
2023-03-19T10:21:58.529Z,16.40
2023-03-19T10:24:49.132Z,16.20
2023-03-19T10:27:28.236Z,16.10
2023-03-19T10:30:02.553Z,16.00
2023-03-19T10:32:45.739Z,15.90
2023-03-19T10:35:44.186Z,15.80
2023-03-19T10:38:33.047Z,15.90
2023-03-19T10:41:28.422Z,16.00
2023-03-19T10:44:30.916Z,16.20
2023-03-19T10:47:16.006Z,16.40
2023-03-19T10:49:48.324Z,16.50
2023-03-19T10:52:31.968Z,16.60
2023-03-19T10:55:22.522Z,16.70
2023-03-19T10:58:09.025Z,16.90
2023-03-19T11:00:54.838Z,17.20
2023-03-19T11:03:39.618Z,17.20
2023-03-19T11:06:37.959Z,17.40
2023-03-19T11:09:12.061Z,17.60
2023-03-19T11:11:56.736Z,17.90
2023-03-19T11:14:38.633Z,18.00
2023-03-19T11:17:44.480Z,18.30
2023-03-19T11:20:35.075Z,18.50
2023-03-19T11:23:20.682Z,18.60
2023-03-19T11:26:07.668Z,18.50
2023-03-19T11:28:43.129Z,18.40
2023-03-19T11:31:45.957Z,18.30
2023-03-19T11:34:38.553Z,18.30
2023-03-19T11:37:22.905Z,18.40
2023-03-19T11:40:13.792Z,18.40
2023-03-19T11:43:12.439Z,18.60
2023-03-19T11:45:49.259Z,18.80
2023-03-19T11:49:13.524Z,18.90
2023-03-19T11:51:50.730Z,18.80
2023-03-19T11:54:26.052Z,18.70
2023-03-19T11:57:01.235Z,18.70
2023-03-19T12:00:01.391Z,18.70
2023-03-19T12:03:01.266Z,18.50
2023-03-19T12:05:49.776Z,18.50
2023-03-19T12:08:29.455Z,18.50
2023-03-19T12:11:53.752Z,18.50
2023-03-19T12:15:05.747Z,18.50
2023-03-19T12:17:49.790Z,18.50
2023-03-19T12:21:23.904Z,18.40
2023-03-19T12:24:26.757Z,18.40
2023-03-19T12:27:33.585Z,18.30
2023-03-19T12:30:56.573Z,18.20
2023-03-19T12:33:36.999Z,18.00
2023-03-19T12:39:38.986Z,17.80
2023-03-19T12:42:25.362Z,17.60
2023-03-19T12:45:01.352Z,17.40
2023-03-19T12:47:40.782Z,17.20
2023-03-19T12:50:15.815Z,17.10
2023-03-19T12:52:58.839Z,17.10
2023-03-19T12:55:42.486Z,17.10
2023-03-19T12:58:20.577Z,17.10
2023-03-19T13:01:34.534Z,17.10
2023-03-19T13:04:27.845Z,17.00
2023-03-19T13:07:30.610Z,16.80
2023-03-19T13:10:16.163Z,16.90
2023-03-19T13:12:47.750Z,16.80
2023-03-19T13:15:41.710Z,16.80
2023-03-19T13:18:41.197Z,16.90
2023-03-19T13:21:27.604Z,17.00
2023-03-19T13:24:35.407Z,17.10
2023-03-19T13:27:06.755Z,17.20
2023-03-19T13:29:55.092Z,17.20
2023-03-19T13:32:55.977Z,17.10
2023-03-19T13:35:39.074Z,17.10
2023-03-19T13:38:31.894Z,17.10
2023-03-19T13:41:16.055Z,17.00
2023-03-19T13:43:53.726Z,16.80
2023-03-19T13:46:22.787Z,16.80
2023-03-19T13:48:52.151Z,16.80
2023-03-19T13:51:19.099Z,16.80
2023-03-19T13:54:13.693Z,16.80
2023-03-19T13:57:16.497Z,16.70
2023-03-19T13:59:48.167Z,16.80
2023-03-19T14:02:21.426Z,17.00
2023-03-19T14:05:16.991Z,17.40
2023-03-19T14:07:50.473Z,17.50
2023-03-19T14:10:31.709Z,17.40
2023-03-19T14:13:42.228Z,17.30
2023-03-19T14:16:35.440Z,17.00
2023-03-19T14:19:05.085Z,17.00
2023-03-19T14:22:00.305Z,16.90
2023-03-19T14:24:56.639Z,16.80
2023-03-19T14:27:30.677Z,16.70
2023-03-19T14:30:01.874Z,16.50
2023-03-19T14:32:36.474Z,16.40
2023-03-19T14:35:06.494Z,16.30
2023-03-19T14:37:49.896Z,16.10
2023-03-19T14:40:41.586Z,16.00
2023-03-19T14:43:23.483Z,15.90
2023-03-19T14:46:01.510Z,15.70
2023-03-19T14:48:50.371Z,15.30
2023-03-19T14:51:48.498Z,15.00
2023-03-19T14:54:38.071Z,14.70
2023-03-19T14:57:16.540Z,14.60
2023-03-19T14:59:46.359Z,14.50
2023-03-19T15:02:32.402Z,14.50
2023-03-19T15:05:01.029Z,14.60
2023-03-19T15:07:44.232Z,14.70
2023-03-19T15:10:24.550Z,14.80
2023-03-19T15:13:06.094Z,14.90
2023-03-19T15:15:55.486Z,15.20
2023-03-19T15:18:24.623Z,15.50
2023-03-19T15:20:54.525Z,15.60
2023-03-19T15:23:28.788Z,15.80
2023-03-19T15:25:57.800Z,16.00
2023-03-19T15:28:30.944Z,16.20
2023-03-19T15:31:13.393Z,16.30
2023-03-19T15:33:46.537Z,16.30
2023-03-19T15:36:19.007Z,16.30
2023-03-19T15:39:09.960Z,16.90
2023-03-19T15:41:42.876Z,18.20
2023-03-19T15:44:20.538Z,19.70
2023-03-19T15:46:49.024Z,20.20
2023-03-19T15:49:22.350Z,20.40
2023-03-19T15:51:54.141Z,20.40
2023-03-19T15:54:23.506Z,20.10
2023-03-19T15:56:52.259Z,19.70
2023-03-19T15:59:25.149Z,19.20
2023-03-19T16:01:52.309Z,18.90
2023-03-19T16:04:25.604Z,18.70
2023-03-19T16:06:52.821Z,18.70
2023-03-19T16:09:27.172Z,18.70
2023-03-19T16:11:55.106Z,18.60
2023-03-19T16:14:25.313Z,18.50
2023-03-19T16:17:00.024Z,18.40
2023-03-19T16:19:29.824Z,18.60
2023-03-19T16:21:57.501Z,19.40
2023-03-19T16:24:30.943Z,20.20
2023-03-19T16:26:58.710Z,20.60
2023-03-19T16:29:28.226Z,20.60
2023-03-19T16:32:19.061Z,20.30
2023-03-19T16:35:07.763Z,19.70
2023-03-19T16:37:37.858Z,19.30
2023-03-19T16:40:24.770Z,18.80
2023-03-19T16:42:54.006Z,18.30
2023-03-19T16:45:30.672Z,17.90
2023-03-19T16:48:00.335Z,17.50
2023-03-19T16:50:44.423Z,17.20
2023-03-19T16:53:32.088Z,17.00
2023-03-19T16:56:00.833Z,16.70
2023-03-19T16:58:37.748Z,16.60
2023-03-19T17:01:35.908Z,16.50
2023-03-19T17:04:24.481Z,16.30
2023-03-19T17:06:55.731Z,16.20
2023-03-19T17:09:30.289Z,16.20
2023-03-19T17:12:46.640Z,16.10
2023-03-19T17:15:40.236Z,16.00
2023-03-19T17:18:29.087Z,15.90
2023-03-19T17:21:23.365Z,15.80
2023-03-19T17:24:09.191Z,15.70
2023-03-19T17:26:46.837Z,15.60
2023-03-19T17:32:29.645Z,15.50
2023-03-19T17:34:59.606Z,15.40
2023-03-19T17:37:41.735Z,15.40
2023-03-19T17:40:31.936Z,15.40
2023-03-19T17:43:08.409Z,15.30
2023-03-19T17:45:49.254Z,15.30
2023-03-19T17:48:27.438Z,15.30
2023-03-19T17:51:09.009Z,15.20
2023-03-19T17:53:49.171Z,15.10
2023-03-19T17:56:31.956Z,15.10
2023-03-19T17:59:50.456Z,15.10
2023-03-19T18:02:37.244Z,15.10
2023-03-19T18:08:37.094Z,15.00
2023-03-19T18:12:07.734Z,15.00
2023-03-19T18:14:52.543Z,15.00
2023-03-19T18:17:27.449Z,15.00
2023-03-19T18:20:15.148Z,14.90
2023-03-19T18:22:49.363Z,14.80
2023-03-19T18:25:32.539Z,14.60
2023-03-19T18:28:28.976Z,14.40
2023-03-19T18:34:14.845Z,13.70
2023-03-19T18:36:48.630Z,13.50
2023-03-19T18:39:24.095Z,13.20
2023-03-19T18:42:10.813Z,12.90
2023-03-19T18:44:53.403Z,12.60
2023-03-19T18:47:30.501Z,12.40
2023-03-19T18:50:31.413Z,12.10
2023-03-19T18:53:07.200Z,11.90
2023-03-19T18:56:38.496Z,11.70
2023-03-19T18:59:24.518Z,11.40
2023-03-19T19:04:51.766Z,11.20
2023-03-19T19:07:39.908Z,11.10
2023-03-19T19:10:15.942Z,11.10
2023-03-19T19:13:07.481Z,10.90
2023-03-19T19:16:04.326Z,10.80
2023-03-19T19:18:35.595Z,10.60
2023-03-19T19:21:08.442Z,10.50
2023-03-19T19:23:42.433Z,10.50
2023-03-19T19:26:47.664Z,10.50
2023-03-19T19:29:42.462Z,10.50
2023-03-19T19:35:32.316Z,10.40
2023-03-19T19:38:18.452Z,10.30
2023-03-19T19:41:06.032Z,10.30
2023-03-19T19:43:48.236Z,10.30
2023-03-19T19:46:37.177Z,10.30
2023-03-19T19:49:26.148Z,10.30
2023-03-19T19:52:07.834Z,10.30
2023-03-19T19:55:17.136Z,10.30
2023-03-19T19:57:56.474Z,10.10
2023-03-19T20:01:02.333Z,10.00
2023-03-19T20:03:40.721Z,10.00
2023-03-19T20:06:16.538Z,9.90
2023-03-19T20:09:05.981Z,9.90
2023-03-19T20:11:39.055Z,9.90
2023-03-19T20:14:28.632Z,9.80
2023-03-19T20:17:09.168Z,9.90
2023-03-19T20:22:36.571Z,9.90
2023-03-19T20:25:15.118Z,9.90
2023-03-19T20:27:55.471Z,9.90
2023-03-19T20:30:40.312Z,9.90
2023-03-19T20:33:18.511Z,10.00
2023-03-19T20:35:58.711Z,10.00
2023-03-19T20:38:40.792Z,10.00
2023-03-19T20:41:37.508Z,10.00
2023-03-19T20:44:22.470Z,10.10
2023-03-19T20:49:40.408Z,10.10
2023-03-19T20:52:09.490Z,10.10
2023-03-19T20:54:36.493Z,10.00
2023-03-19T20:57:03.772Z,10.00
2023-03-19T20:59:30.885Z,10.00
2023-03-19T21:01:57.961Z,10.00
2023-03-19T21:04:25.065Z,10.00
2023-03-19T21:06:54.020Z,9.90
2023-03-19T21:09:21.565Z,9.90
2023-03-19T21:11:49.213Z,9.80
2023-03-19T21:14:16.280Z,9.70
2023-03-19T21:16:43.744Z,9.70
2023-03-19T21:19:12.729Z,9.80
2023-03-19T21:21:40.021Z,9.70
2023-03-19T21:24:17.781Z,9.70
2023-03-19T21:26:46.516Z,9.70
2023-03-19T21:29:20.444Z,9.70
2023-03-19T21:31:48.097Z,9.70
2023-03-19T21:34:16.411Z,9.60
2023-03-19T21:36:43.425Z,9.50
2023-03-19T21:39:11.424Z,9.50
2023-03-19T21:41:38.408Z,9.50
2023-03-19T21:44:25.111Z,9.60
2023-03-19T21:46:52.621Z,9.50
2023-03-19T21:49:23.134Z,9.50
2023-03-19T21:51:50.112Z,9.50
2023-03-19T21:54:18.052Z,9.40
2023-03-19T21:56:46.008Z,9.50
2023-03-19T21:59:23.773Z,9.50
2023-03-19T22:01:51.919Z,9.60
2023-03-19T22:04:19.523Z,9.60
2023-03-19T22:06:46.810Z,9.60
2023-03-19T22:09:13.882Z,9.70
2023-03-19T22:11:42.500Z,9.70
2023-03-19T22:14:30.190Z,9.70
2023-03-19T22:16:57.325Z,9.80
2023-03-19T22:19:25.872Z,9.90
2023-03-19T22:21:53.391Z,10.00
2023-03-19T22:24:20.498Z,10.00
2023-03-19T22:26:50.706Z,10.00
2023-03-19T22:29:24.592Z,10.00
2023-03-19T22:31:52.825Z,10.10
2023-03-19T22:34:22.966Z,10.00
2023-03-19T22:36:50.509Z,10.10
2023-03-19T22:39:17.961Z,10.10
2023-03-19T22:41:47.989Z,10.10
2023-03-19T22:44:28.040Z,10.20
2023-03-19T22:46:56.263Z,10.20
2023-03-19T22:49:24.895Z,10.20
2023-03-19T22:51:52.079Z,10.20
2023-03-19T22:54:19.019Z,10.20
2023-03-19T22:56:46.019Z,10.20
2023-03-19T22:59:13.798Z,10.20
2023-03-19T23:01:46.326Z,10.30
2023-03-19T23:04:22.553Z,10.30
2023-03-19T23:06:51.164Z,10.30
2023-03-19T23:09:27.116Z,10.30
2023-03-19T23:11:54.260Z,10.30
2023-03-19T23:14:29.572Z,10.20
2023-03-19T23:17:03.421Z,10.10
2023-03-19T23:19:38.533Z,10.10
2023-03-19T23:22:07.498Z,10.10
2023-03-19T23:24:34.751Z,10.10
2023-03-19T23:27:02.707Z,10.20
2023-03-19T23:29:34.339Z,10.20
2023-03-19T23:32:01.741Z,10.30
2023-03-19T23:34:28.886Z,10.30
2023-03-19T23:36:56.807Z,10.40
2023-03-19T23:39:24.579Z,10.30
2023-03-19T23:41:55.638Z,10.40
2023-03-19T23:44:22.642Z,10.40
2023-03-19T23:46:51.209Z,10.40
2023-03-19T23:49:26.797Z,10.40
2023-03-19T23:51:53.673Z,10.40
2023-03-19T23:54:38.964Z,10.40
2023-03-19T23:57:10.616Z,10.40
2023-03-19T23:59:41.824Z,10.40
